createdAt,value
2023-02-27T06:39:18.304Z,59.13
2023-02-27T06:41:45.445Z,58.75
2023-02-27T06:44:12.216Z,57.01
2023-02-27T06:46:39.394Z,57.46
2023-02-27T06:49:06.256Z,57.11
2023-02-27T06:51:33.330Z,55.95
2023-02-27T06:54:00.095Z,57.08
2023-02-27T06:56:27.436Z,56.42
2023-02-27T06:58:54.920Z,56.46
2023-02-27T07:01:23.579Z,55.07
2023-02-27T07:03:50.411Z,55.23
2023-02-27T07:06:17.719Z,54.66
2023-02-27T07:09:01.043Z,55.86
2023-02-27T07:11:31.534Z,55.07
2023-02-27T07:13:58.277Z,55.44
2023-02-27T07:16:25.526Z,54.29
2023-02-27T07:18:52.437Z,55.38
2023-02-27T07:21:19.480Z,54.72
2023-02-27T07:23:46.260Z,53.79
2023-02-27T07:26:13.362Z,54.36
2023-02-27T07:28:40.175Z,55.33
2023-02-27T07:31:07.264Z,55.24
2023-02-27T07:33:34.149Z,54.66
2023-02-27T07:36:01.333Z,55.13
2023-02-27T07:38:28.963Z,53.49
2023-02-27T07:40:56.128Z,52.92
2023-02-27T07:43:22.887Z,53.51
2023-02-27T07:45:51.154Z,53.18
2023-02-27T07:48:19.449Z,53.42
2023-02-27T07:50:46.502Z,54.06
2023-02-27T07:53:13.510Z,53.33
2023-02-27T07:55:40.666Z,53.30
2023-02-27T07:58:07.466Z,53.85
2023-02-27T08:00:34.533Z,52.97
2023-02-27T08:03:01.344Z,52.95
2023-02-27T08:05:28.461Z,52.35
2023-02-27T08:07:55.350Z,52.32
2023-02-27T08:10:22.624Z,52.13
2023-02-27T08:12:49.423Z,51.89
2023-02-27T08:15:17.604Z,52.14
2023-02-27T08:17:45.662Z,50.77
2023-02-27T08:20:14.158Z,51.98
2023-02-27T08:22:41.844Z,50.26
2023-02-27T08:25:11.223Z,50.33
2023-02-27T08:27:38.884Z,50.95
2023-02-27T08:30:07.747Z,50.19
2023-02-27T08:32:35.242Z,50.38
2023-02-27T08:35:02.444Z,50.86
2023-02-27T08:37:29.498Z,51.73
2023-02-27T08:39:56.521Z,52.50
2023-02-27T08:42:24.212Z,51.90
2023-02-27T08:44:52.476Z,51.72
2023-02-27T08:47:19.252Z,52.12
2023-02-27T08:49:46.374Z,50.38
2023-02-27T08:52:13.183Z,51.66
2023-02-27T08:54:40.221Z,50.20
2023-02-27T08:57:09.616Z,51.49
2023-02-27T08:59:36.669Z,52.50
2023-02-27T09:02:03.668Z,50.18
2023-02-27T09:04:30.835Z,50.36
2023-02-27T09:06:58.069Z,50.91
2023-02-27T09:09:25.168Z,50.13
2023-02-27T09:11:51.959Z,50.91
2023-02-27T09:14:20.042Z,48.87
2023-02-27T09:16:46.890Z,49.58
2023-02-27T09:19:15.513Z,49.71
2023-02-27T09:21:42.883Z,49.31
2023-02-27T09:24:19.749Z,49.52
2023-02-27T09:26:48.738Z,50.16
2023-02-27T09:29:16.325Z,49.31
2023-02-27T09:31:43.215Z,49.01
2023-02-27T09:34:10.340Z,49.01
2023-02-27T09:36:37.125Z,48.02
2023-02-27T09:39:04.368Z,49.61
2023-02-27T09:41:56.863Z,48.66
2023-02-27T09:44:46.088Z,47.94
2023-02-27T09:47:30.539Z,47.68
2023-02-27T09:50:01.734Z,48.22
2023-02-27T09:52:31.096Z,47.87
2023-02-27T09:54:58.344Z,47.71
2023-02-27T09:57:44.465Z,47.29
2023-02-27T10:00:39.928Z,47.19
2023-02-27T10:03:23.884Z,46.80
2023-02-27T10:06:21.264Z,46.97
2023-02-27T10:08:57.065Z,45.49
2023-02-27T10:11:34.930Z,46.67
2023-02-27T10:14:10.448Z,45.79
2023-02-27T10:16:39.187Z,45.81
2023-02-27T10:19:14.030Z,45.74
2023-02-27T10:21:44.737Z,47.09
2023-02-27T10:24:17.242Z,45.41
2023-02-27T10:26:45.913Z,44.47
2023-02-27T10:29:24.760Z,45.50
2023-02-27T10:32:01.229Z,43.62
2023-02-27T10:34:29.893Z,43.77
2023-02-27T10:37:00.669Z,44.27
2023-02-27T10:39:29.589Z,44.58
2023-02-27T10:42:03.316Z,42.78
2023-02-27T10:44:30.073Z,43.34
2023-02-27T10:46:57.138Z,43.14
2023-02-27T10:49:24.353Z,43.38
2023-02-27T10:52:13.535Z,44.01
2023-02-27T10:54:41.870Z,44.29
2023-02-27T10:57:35.234Z,43.96
2023-02-27T11:00:06.544Z,44.61
2023-02-27T11:02:42.962Z,44.72
2023-02-27T11:05:48.090Z,43.97
2023-02-27T11:08:27.341Z,45.32
2023-02-27T11:11:00.355Z,43.79
2023-02-27T11:13:33.904Z,43.32
2023-02-27T11:16:44.967Z,41.87
2023-02-27T11:19:44.274Z,41.81
2023-02-27T11:22:20.265Z,42.30
2023-02-27T11:24:48.232Z,41.81
2023-02-27T11:27:22.693Z,42.74
2023-02-27T11:30:02.419Z,42.01
2023-02-27T11:32:45.454Z,43.12
2023-02-27T11:35:31.527Z,44.23
2023-02-27T11:38:07.764Z,44.38
2023-02-27T11:40:40.818Z,44.13
2023-02-27T11:43:20.488Z,44.52
2023-02-27T11:46:13.296Z,44.19
2023-02-27T11:48:48.266Z,44.08
2023-02-27T11:51:32.834Z,43.79
2023-02-27T11:54:20.799Z,42.74
2023-02-27T11:57:03.318Z,42.95
2023-02-27T11:59:39.239Z,42.68
2023-02-27T12:02:23.587Z,42.26
2023-02-27T12:04:53.960Z,42.09
2023-02-27T12:07:36.167Z,40.00
2023-02-27T12:10:10.630Z,39.63
2023-02-27T12:12:48.061Z,38.99
2023-02-27T12:15:23.790Z,39.53
2023-02-27T12:18:05.233Z,40.34
2023-02-27T12:20:35.238Z,40.51
2023-02-27T12:23:10.137Z,40.51
2023-02-27T12:26:03.705Z,39.58
2023-02-27T12:28:41.003Z,40.05
2023-02-27T12:31:43.575Z,38.39
2023-02-27T12:34:31.555Z,39.72
2023-02-27T12:37:03.378Z,39.28
2023-02-27T12:39:32.165Z,38.95
2023-02-27T12:42:21.368Z,38.80
2023-02-27T12:45:10.083Z,39.70
2023-02-27T12:48:13.535Z,40.74
2023-02-27T12:51:06.925Z,39.77
2023-02-27T12:53:58.387Z,40.66
2023-02-27T12:56:52.740Z,40.11
2023-02-27T12:59:53.776Z,40.24
2023-02-27T13:02:51.750Z,41.45
2023-02-27T13:05:18.727Z,40.87
2023-02-27T13:07:53.483Z,40.35
2023-02-27T13:10:31.644Z,39.17
2023-02-27T13:13:12.562Z,39.62
2023-02-27T13:15:55.334Z,39.50
2023-02-27T13:18:36.056Z,39.55
2023-02-27T13:21:32.209Z,40.44
2023-02-27T13:24:18.000Z,40.70
2023-02-27T13:26:57.325Z,41.17
2023-02-27T13:29:36.988Z,42.47
2023-02-27T13:32:36.501Z,42.16
2023-02-27T13:35:54.708Z,42.73
2023-02-27T13:38:45.526Z,42.79
2023-02-27T13:41:39.475Z,42.70
2023-02-27T13:44:21.374Z,42.83
2023-02-27T13:46:48.464Z,43.54
2023-02-27T13:49:28.288Z,43.11
2023-02-27T13:51:59.516Z,42.50
2023-02-27T13:54:33.417Z,43.72
2023-02-27T13:57:03.483Z,43.17
2023-02-27T13:59:39.690Z,43.99
2023-02-27T14:02:12.893Z,44.56
2023-02-27T14:04:45.549Z,44.92
2023-02-27T14:07:18.670Z,44.81
2023-02-27T14:09:47.624Z,43.47
2023-02-27T14:12:44.552Z,44.98
2023-02-27T14:15:17.920Z,42.99
2023-02-27T14:17:49.621Z,43.79
2023-02-27T14:20:19.327Z,43.02
2023-02-27T14:23:17.402Z,43.53
2023-02-27T14:25:53.279Z,43.38
2023-02-27T14:28:30.429Z,43.08
2023-02-27T14:31:07.425Z,42.70
2023-02-27T14:33:45.412Z,43.78
2023-02-27T14:36:30.481Z,42.50
2023-02-27T14:38:59.928Z,42.12
2023-02-27T14:41:49.650Z,42.79
2023-02-27T14:44:24.690Z,43.92
2023-02-27T14:46:54.700Z,42.90
2023-02-27T14:49:32.493Z,43.06
2023-02-27T14:52:12.651Z,43.02
2023-02-27T14:54:39.760Z,42.82
2023-02-27T14:57:07.347Z,43.19
2023-02-27T14:59:49.422Z,43.12
2023-02-27T15:02:22.315Z,43.57
2023-02-27T15:05:02.296Z,43.42
2023-02-27T15:07:34.464Z,43.71
2023-02-27T15:10:05.080Z,43.64
2023-02-27T15:12:37.214Z,43.32
2023-02-27T15:15:06.098Z,43.78
2023-02-27T15:17:41.532Z,44.41
2023-02-27T15:20:27.581Z,43.53
2023-02-27T15:22:54.549Z,44.77
2023-02-27T15:25:37.403Z,45.10
2023-02-27T15:28:07.623Z,44.86
2023-02-27T15:30:34.792Z,44.92
2023-02-27T15:33:02.945Z,44.30
2023-02-27T15:35:37.141Z,46.19
2023-02-27T15:38:04.340Z,46.37
2023-02-27T15:40:33.464Z,46.53
2023-02-27T15:43:01.585Z,46.67
2023-02-27T15:45:34.128Z,46.73
2023-02-27T15:48:01.440Z,46.87
2023-02-27T15:50:38.945Z,46.75
2023-02-27T15:53:13.254Z,46.54
2023-02-27T15:55:53.321Z,46.43
2023-02-27T15:58:25.175Z,46.92
2023-02-27T16:01:04.708Z,46.76
2023-02-27T16:03:38.580Z,46.63
2023-02-27T16:06:21.721Z,47.19
2023-02-27T16:08:56.388Z,47.72
2023-02-27T16:11:26.172Z,48.89
2023-02-27T16:13:54.274Z,49.40
2023-02-27T16:16:21.387Z,49.06
2023-02-27T16:18:59.409Z,49.56
2023-02-27T16:21:31.117Z,50.41
2023-02-27T16:24:21.398Z,51.01
2023-02-27T16:26:53.129Z,51.23
2023-02-27T16:29:23.059Z,51.46
2023-02-27T16:31:55.981Z,52.21
2023-02-27T16:34:46.659Z,52.06
2023-02-27T16:37:27.100Z,51.85
2023-02-27T16:39:54.500Z,52.63
2023-02-27T16:42:22.049Z,52.69
2023-02-27T16:44:49.065Z,53.12
2023-02-27T16:47:16.218Z,53.62
2023-02-27T16:49:44.445Z,53.74
2023-02-27T16:52:11.985Z,52.81
2023-02-27T16:54:38.964Z,53.53
2023-02-27T16:57:06.379Z,53.70
2023-02-27T16:59:42.035Z,53.98
2023-02-27T17:02:14.889Z,54.44
2023-02-27T17:04:47.868Z,54.56
2023-02-27T17:07:17.274Z,55.12
2023-02-27T17:09:47.725Z,55.56
2023-02-27T17:12:14.872Z,54.30
2023-02-27T17:14:41.673Z,54.13
2023-02-27T17:17:11.537Z,54.36
2023-02-27T17:19:39.018Z,54.89
2023-02-27T17:22:06.449Z,56.01
2023-02-27T17:24:34.295Z,56.92
2023-02-27T17:27:01.388Z,56.63
2023-02-27T17:29:28.828Z,57.79
2023-02-27T17:31:57.157Z,58.10
2023-02-27T17:34:24.559Z,57.96
2023-02-27T17:36:53.319Z,58.69
2023-02-27T17:39:20.249Z,58.64
2023-02-27T17:41:47.691Z,58.22
2023-02-27T17:44:14.906Z,58.49
2023-02-27T17:46:42.011Z,59.29
2023-02-27T17:49:09.598Z,59.97
2023-02-27T17:51:36.718Z,59.78
2023-02-27T17:54:05.029Z,60.64
2023-02-27T17:56:33.668Z,61.03
2023-02-27T17:59:01.659Z,61.47
2023-02-27T18:01:29.195Z,61.43
2023-02-27T18:03:56.716Z,61.70
2023-02-27T18:06:24.417Z,62.53
2023-02-27T18:08:51.626Z,63.33
2023-02-27T18:11:21.106Z,62.90
2023-02-27T18:13:48.453Z,61.98
2023-02-27T18:16:15.977Z,59.25
2023-02-27T18:18:43.649Z,58.79
2023-02-27T18:21:14.492Z,58.81
2023-02-27T18:23:41.795Z,59.38
2023-02-27T18:26:27.192Z,58.41
2023-02-27T18:29:06.707Z,59.14
2023-02-27T18:31:41.195Z,59.09
2023-02-27T18:34:08.759Z,59.00
2023-02-27T18:36:36.696Z,58.97
2023-02-27T18:39:05.127Z,59.33
2023-02-27T18:41:32.488Z,59.80
2023-02-27T18:43:59.348Z,59.98
2023-02-27T18:46:27.545Z,60.04
2023-02-27T18:48:54.657Z,60.25
2023-02-27T18:51:22.092Z,60.79
2023-02-27T18:53:50.167Z,60.06
2023-02-27T18:56:23.721Z,60.48
2023-02-27T18:58:51.500Z,60.08
2023-02-27T19:01:27.489Z,60.25
2023-02-27T19:04:00.335Z,60.72
2023-02-27T19:06:28.242Z,60.38
2023-02-27T19:08:55.214Z,59.99
2023-02-27T19:11:29.617Z,60.27
2023-02-27T19:13:57.689Z,60.04
2023-02-27T19:16:25.074Z,60.05
2023-02-27T19:18:51.962Z,60.13
2023-02-27T19:21:19.008Z,60.12
2023-02-27T19:23:45.925Z,60.26
2023-02-27T19:26:13.106Z,60.02
2023-02-27T19:28:40.574Z,60.03
2023-02-27T19:31:10.389Z,59.96
2023-02-27T19:33:37.555Z,59.90
2023-02-27T19:36:10.891Z,60.32
2023-02-27T19:38:37.971Z,60.26
2023-02-27T19:41:07.910Z,60.75
2023-02-27T19:43:36.308Z,60.74
2023-02-27T19:46:16.508Z,60.12
2023-02-27T19:48:43.777Z,59.33
2023-02-27T19:51:13.468Z,60.30
2023-02-27T19:53:42.242Z,61.14
2023-02-27T19:56:12.851Z,61.07
2023-02-27T19:58:40.799Z,61.26
2023-02-27T20:01:09.845Z,60.06
2023-02-27T20:03:37.675Z,61.22
2023-02-27T20:06:06.336Z,61.87
2023-02-27T20:08:34.317Z,61.13
2023-02-27T20:11:04.942Z,61.24
2023-02-27T20:13:31.855Z,61.15
2023-02-27T20:16:04.166Z,62.01
2023-02-27T20:18:31.962Z,62.08
2023-02-27T20:21:08.193Z,61.01
2023-02-27T20:23:38.886Z,61.04
2023-02-27T20:26:31.696Z,60.66
2023-02-27T20:29:02.084Z,61.04
2023-02-27T20:31:31.306Z,61.09
2023-02-27T20:34:01.115Z,60.41
2023-02-27T20:36:29.024Z,60.85
2023-02-27T20:38:55.961Z,60.85
2023-02-27T20:41:23.808Z,60.48
2023-02-27T20:43:51.692Z,60.30
2023-02-27T20:46:25.098Z,60.63
2023-02-27T20:48:52.102Z,60.37
2023-02-27T20:51:22.177Z,59.99
2023-02-27T20:53:52.409Z,61.29
2023-02-27T20:56:34.535Z,62.07
2023-02-27T20:59:05.934Z,62.59
2023-02-27T21:01:33.602Z,63.03
2023-02-27T21:04:00.637Z,63.46
2023-02-27T21:06:27.974Z,64.17
2023-02-27T21:08:56.780Z,64.62
2023-02-27T21:11:30.006Z,65.06
2023-02-27T21:13:59.272Z,64.89
2023-02-27T21:16:26.433Z,65.10
2023-02-27T21:18:56.490Z,64.73
2023-02-27T21:25:24.460Z,65.00
2023-02-27T21:27:51.692Z,64.92
2023-02-27T21:30:18.929Z,65.25
2023-02-27T21:32:46.005Z,66.36
2023-02-27T21:35:12.891Z,65.13
2023-02-27T21:37:46.672Z,65.04
2023-02-27T21:40:14.321Z,64.51
2023-02-27T21:42:43.424Z,65.53
2023-02-27T21:45:10.621Z,65.52
2023-02-27T21:47:37.717Z,66.32
2023-02-27T21:50:13.722Z,66.57
2023-02-27T21:52:42.288Z,65.98
2023-02-27T21:55:10.969Z,65.86
2023-02-27T21:57:39.602Z,65.81
2023-02-27T22:00:11.120Z,67.46
2023-02-27T22:02:39.392Z,66.27
2023-02-27T22:05:07.097Z,66.95
2023-02-27T22:07:34.172Z,67.39
2023-02-27T22:10:01.071Z,66.82
2023-02-27T22:12:28.237Z,66.70
2023-02-27T22:14:55.029Z,66.13
2023-02-27T22:17:22.126Z,65.95
2023-02-27T22:19:49.008Z,65.61
2023-02-27T22:22:16.154Z,67.37
2023-02-27T22:24:52.209Z,67.26
2023-02-27T22:27:22.161Z,66.85
2023-02-27T22:29:48.975Z,65.44
2023-02-27T22:32:18.105Z,66.50
2023-02-27T22:34:46.102Z,66.30
2023-02-27T22:37:16.252Z,67.40
2023-02-27T22:39:43.043Z,67.91
2023-02-27T22:42:10.130Z,67.24
2023-02-27T22:44:36.940Z,68.12
2023-02-27T22:47:04.035Z,67.00
2023-02-27T22:49:30.793Z,66.39
2023-02-27T22:51:57.891Z,67.10
2023-02-27T22:54:24.685Z,66.50
2023-02-27T22:56:52.803Z,67.68
2023-02-27T22:59:20.980Z,67.05
2023-02-27T23:01:48.956Z,66.74
2023-02-27T23:04:17.186Z,68.31
2023-02-27T23:06:44.760Z,67.54
2023-02-27T23:09:14.516Z,67.37
2023-02-27T23:11:42.095Z,66.94
2023-02-27T23:14:10.065Z,67.98
2023-02-27T23:16:37.327Z,68.01
2023-02-27T23:19:04.933Z,68.16
2023-02-27T23:21:36.299Z,67.10
2023-02-27T23:24:05.097Z,67.43
2023-02-27T23:26:32.232Z,67.65
2023-02-27T23:28:58.985Z,67.51
2023-02-27T23:31:26.246Z,67.63
2023-02-27T23:33:53.207Z,67.36
2023-02-27T23:36:20.768Z,67.14
2023-02-27T23:38:47.658Z,66.85
2023-02-27T23:41:17.421Z,66.79
2023-02-27T23:43:45.170Z,66.86
2023-02-27T23:46:14.826Z,67.06
2023-02-27T23:48:42.406Z,67.77
2023-02-27T23:51:11.090Z,68.92
2023-02-27T23:53:40.406Z,68.35
2023-02-27T23:56:13.359Z,68.94
2023-02-27T23:58:40.190Z,68.86
